createdAt,value
2019-04-06T00:01:41.120Z,77.90
2019-04-06T00:04:14.760Z,77.80
2019-04-06T00:06:47.802Z,77.70
2019-04-06T00:09:20.539Z,78.40
2019-04-06T00:11:53.339Z,77.90
2019-04-06T00:14:27.000Z,77.90
2019-04-06T00:16:59.719Z,78.10
2019-04-06T00:19:33.042Z,78.10
2019-04-06T00:22:05.880Z,78.20
2019-04-06T00:24:38.479Z,78.20
2019-04-06T00:27:10.883Z,78.40
2019-04-06T00:29:44.521Z,78.50
2019-04-06T00:32:38.539Z,78.60
2019-04-06T00:35:11.661Z,78.50
2019-04-06T00:37:44.824Z,78.60
2019-04-06T00:40:17.719Z,79.30
2019-04-06T00:42:51.039Z,78.50
2019-04-06T00:45:23.401Z,78.60
2019-04-06T00:47:56.522Z,78.60
2019-04-06T00:50:29.259Z,78.40
2019-04-06T00:53:03.204Z,78.50
2019-04-06T00:55:36.522Z,78.70
2019-04-06T00:58:09.840Z,78.70
2019-04-06T01:00:42.525Z,78.80
2019-04-06T01:03:15.480Z,79.00
2019-04-06T01:05:47.760Z,78.90
2019-04-06T01:08:21.273Z,79.00
2019-04-06T01:10:55.300Z,79.00
2019-04-06T01:13:28.578Z,79.20
2019-04-06T01:16:01.099Z,79.50
2019-04-06T01:18:33.819Z,79.30
2019-04-06T01:21:06.779Z,79.10
2019-04-06T01:23:39.920Z,79.30
2019-04-06T01:26:11.919Z,79.30
2019-04-06T01:28:44.939Z,79.40
2019-04-06T01:31:18.419Z,79.50
2019-04-06T01:33:51.781Z,79.80
2019-04-06T01:36:24.640Z,79.80
2019-04-06T01:38:57.189Z,79.70
2019-04-06T01:41:30.359Z,79.80
2019-04-06T01:44:02.600Z,79.80
2019-04-06T01:46:34.899Z,80.40
2019-04-06T01:49:08.159Z,79.70
2019-04-06T01:51:41.800Z,79.50
2019-04-06T01:54:14.940Z,79.40
2019-04-06T01:56:48.099Z,79.70
2019-04-06T01:59:20.904Z,79.80
2019-04-06T02:02:01.159Z,80.00
2019-04-06T02:04:52.660Z,79.90
2019-04-06T02:07:25.040Z,79.80
2019-04-06T02:09:58.039Z,80.10
2019-04-06T02:12:30.619Z,79.90
2019-04-06T02:15:03.592Z,79.60
2019-04-06T02:17:36.740Z,79.50
2019-04-06T02:20:10.589Z,79.60
2019-04-06T02:22:44.219Z,79.60
2019-04-06T02:25:17.180Z,79.40
2019-04-06T02:27:50.719Z,79.30
2019-04-06T02:30:30.998Z,79.10
2019-04-06T02:33:20.486Z,79.20
2019-04-06T02:35:58.700Z,79.30
2019-04-06T02:38:47.901Z,79.20
2019-04-06T02:41:37.868Z,79.40
2019-04-06T02:44:10.500Z,79.40
2019-04-06T02:46:44.022Z,79.30
2019-04-06T02:49:16.619Z,79.10
2019-04-06T02:51:49.661Z,79.20
2019-04-06T02:54:22.401Z,79.40
2019-04-06T02:56:55.606Z,79.40
2019-04-06T02:59:29.180Z,79.40
2019-04-06T03:02:02.860Z,79.30
2019-04-06T03:04:35.631Z,79.30
2019-04-06T03:07:08.380Z,79.30
2019-04-06T03:09:42.041Z,79.40
2019-04-06T03:12:14.509Z,79.40
2019-04-06T03:14:48.231Z,79.40
2019-04-06T03:17:21.660Z,79.40
2019-04-06T03:19:54.982Z,79.10
2019-04-06T03:22:27.764Z,79.10
2019-04-06T03:25:00.480Z,79.20
2019-04-06T03:27:33.761Z,78.80
2019-04-06T03:30:07.119Z,78.60
2019-04-06T03:32:39.009Z,79.30
2019-04-06T03:35:12.422Z,80.00
2019-04-06T03:37:44.989Z,79.90
2019-04-06T03:40:18.658Z,80.00
2019-04-06T03:42:51.081Z,79.90
2019-04-06T03:45:23.039Z,80.20
2019-04-06T03:47:56.081Z,80.10
2019-04-06T03:50:28.887Z,80.20
2019-04-06T03:53:03.161Z,80.50
2019-04-06T03:55:36.981Z,80.70
2019-04-06T03:58:10.745Z,80.70
2019-04-06T04:00:44.522Z,81.10
2019-04-06T04:03:17.820Z,81.00
2019-04-06T04:05:50.835Z,81.10
2019-04-06T04:08:24.040Z,81.10
2019-04-06T04:10:56.439Z,81.10
2019-04-06T04:13:29.064Z,81.20
2019-04-06T04:16:02.688Z,81.60
2019-04-06T04:18:34.841Z,81.50
2019-04-06T04:21:08.060Z,81.50
2019-04-06T04:23:41.820Z,81.60
2019-04-06T04:26:14.519Z,81.40
2019-04-06T04:28:47.113Z,81.10
2019-04-06T04:31:20.324Z,80.90
2019-04-06T04:33:53.192Z,81.00
2019-04-06T04:36:25.600Z,80.90
2019-04-06T04:38:58.700Z,81.10
2019-04-06T04:41:31.324Z,81.30
2019-04-06T04:44:03.619Z,81.10
2019-04-06T04:46:36.681Z,80.90
2019-04-06T04:49:08.801Z,81.00
2019-04-06T04:51:41.302Z,81.10
2019-04-06T04:54:13.900Z,81.00
2019-04-06T04:56:46.420Z,81.10
2019-04-06T04:59:18.581Z,80.80
2019-04-06T05:01:52.747Z,80.90
2019-04-06T05:04:25.919Z,80.70
2019-04-06T05:06:59.139Z,80.10
2019-04-06T05:09:32.761Z,80.10
2019-04-06T05:12:05.818Z,79.40
2019-04-06T05:15:05.180Z,79.30
2019-04-06T05:17:37.740Z,79.50
2019-04-06T05:20:12.780Z,79.60
2019-04-06T05:22:45.989Z,79.50
2019-04-06T05:25:19.240Z,79.20
2019-04-06T05:27:53.139Z,79.30
2019-04-06T05:30:26.781Z,79.50
2019-04-06T05:32:59.618Z,79.30
2019-04-06T05:35:32.040Z,79.70
2019-04-06T05:38:05.619Z,79.70
2019-04-06T05:40:37.819Z,80.00
2019-04-06T05:43:11.318Z,80.00
2019-04-06T05:45:44.499Z,80.00
2019-04-06T05:48:16.978Z,80.30
2019-04-06T05:50:50.448Z,80.40
2019-04-06T05:53:24.100Z,80.80
2019-04-06T05:55:56.719Z,81.10
2019-04-06T05:58:29.040Z,81.40
2019-04-06T06:01:03.967Z,81.40
2019-04-06T06:03:40.134Z,81.30
2019-04-06T06:06:12.662Z,81.20
2019-04-06T06:08:45.482Z,81.70
2019-04-06T06:11:18.399Z,81.80
2019-04-06T06:13:51.840Z,81.70
2019-04-06T06:16:24.953Z,81.80
2019-04-06T06:18:57.855Z,81.90
2019-04-06T06:21:30.998Z,81.90
2019-04-06T06:24:04.187Z,82.00
2019-04-06T06:26:38.159Z,82.20
2019-04-06T06:29:10.619Z,82.50
2019-04-06T06:31:43.201Z,82.40
2019-04-06T06:34:16.221Z,82.40
2019-04-06T06:36:49.919Z,82.40
2019-04-06T06:39:23.759Z,82.50
2019-04-06T06:41:57.160Z,82.40
2019-04-06T06:44:30.219Z,81.90
2019-04-06T06:47:04.549Z,81.00
2019-04-06T06:49:36.979Z,80.70
2019-04-06T06:52:09.840Z,80.40
2019-04-06T06:54:42.479Z,80.00
2019-04-06T06:57:15.786Z,80.30
2019-04-06T06:59:49.020Z,80.30
2019-04-06T07:02:21.919Z,81.20
2019-04-06T07:04:54.762Z,80.30
2019-04-06T07:07:27.779Z,79.80
2019-04-06T07:10:05.891Z,79.70
2019-04-06T07:12:35.178Z,79.60
2019-04-06T07:15:08.699Z,79.10
2019-04-06T07:17:41.419Z,78.90
2019-04-06T07:20:14.804Z,78.70
2019-04-06T07:22:46.898Z,78.60
2019-04-06T07:25:19.299Z,78.40
2019-04-06T07:27:53.363Z,77.90
2019-04-06T07:30:26.797Z,78.20
2019-04-06T07:32:59.478Z,78.20
2019-04-06T07:35:32.819Z,77.30
2019-04-06T07:38:05.302Z,77.80
2019-04-06T07:40:38.482Z,77.30
2019-04-06T07:43:12.219Z,77.00
2019-04-06T07:45:45.041Z,77.10
2019-04-06T07:48:18.299Z,76.70
2019-04-06T07:50:52.180Z,76.60
2019-04-06T07:53:25.559Z,76.30
2019-04-06T07:55:59.330Z,76.50
2019-04-06T07:58:32.139Z,76.10
2019-04-06T08:01:05.119Z,76.90
2019-04-06T08:03:37.904Z,76.80
2019-04-06T08:06:10.799Z,76.40
2019-04-06T08:08:43.759Z,76.00
2019-04-06T08:11:16.801Z,75.40
2019-04-06T08:13:49.504Z,76.30
2019-04-06T08:16:22.603Z,75.90
2019-04-06T08:18:55.879Z,75.80
2019-04-06T08:21:29.017Z,75.20
2019-04-06T08:24:02.027Z,75.60
2019-04-06T08:26:34.460Z,76.00
2019-04-06T08:29:07.063Z,75.70
2019-04-06T08:31:39.560Z,75.50
2019-04-06T08:34:13.773Z,74.70
2019-04-06T08:36:46.479Z,73.80
2019-04-06T08:39:20.081Z,74.60
2019-04-06T08:41:52.899Z,75.00
2019-04-06T08:44:26.139Z,74.90
2019-04-06T08:46:59.194Z,75.20
2019-04-06T08:49:32.625Z,74.70
2019-04-06T08:52:05.750Z,73.40
2019-04-06T08:54:39.216Z,73.50
2019-04-06T08:57:11.899Z,73.50
2019-04-06T08:59:44.834Z,73.10
2019-04-06T09:02:18.799Z,72.90
2019-04-06T09:04:52.159Z,73.20
2019-04-06T09:07:25.400Z,73.20
2019-04-06T09:09:58.413Z,72.70
2019-04-06T09:12:31.959Z,72.80
2019-04-06T09:15:05.099Z,73.00
2019-04-06T09:17:37.502Z,72.10
2019-04-06T09:20:18.439Z,72.60
2019-04-06T09:22:50.939Z,71.80
2019-04-06T09:25:23.737Z,72.40
2019-04-06T09:27:57.022Z,71.60
2019-04-06T09:30:29.661Z,71.50
2019-04-06T09:33:02.144Z,71.90
2019-04-06T09:35:35.789Z,72.20
2019-04-06T09:38:10.499Z,72.60
2019-04-06T09:40:43.927Z,72.90
2019-04-06T09:43:16.739Z,72.30
2019-04-06T09:46:02.591Z,72.10
2019-04-06T09:49:07.247Z,73.00
2019-04-06T09:51:49.044Z,73.50
2019-04-06T09:54:46.700Z,73.40
2019-04-06T09:57:40.299Z,73.20
2019-04-06T10:00:32.299Z,72.50
2019-04-06T10:03:29.690Z,72.90
2019-04-06T10:06:14.839Z,73.10
2019-04-06T10:09:11.201Z,72.10
2019-04-06T10:12:03.507Z,71.00
2019-04-06T10:14:56.559Z,70.10
2019-04-06T10:17:50.639Z,70.10
2019-04-06T10:20:40.640Z,69.30
2019-04-06T10:23:38.120Z,69.00
2019-04-06T10:26:35.180Z,68.80
2019-04-06T10:29:31.899Z,68.40
2019-04-06T10:32:26.679Z,68.70
2019-04-06T10:35:30.999Z,68.40
2019-04-06T10:38:15.880Z,67.80
2019-04-06T10:41:07.379Z,67.50
2019-04-06T10:43:57.409Z,68.90
2019-04-06T10:46:43.283Z,68.30
2019-04-06T10:49:26.839Z,67.10
2019-04-06T10:52:30.400Z,65.60
2019-04-06T10:55:35.999Z,66.10
2019-04-06T10:58:40.095Z,65.60
2019-04-06T11:01:31.001Z,63.80
2019-04-06T11:04:21.079Z,64.60
2019-04-06T11:07:05.959Z,64.80
2019-04-06T11:09:56.160Z,64.60
2019-04-06T11:12:46.402Z,63.50
2019-04-06T11:15:45.258Z,63.80
2019-04-06T11:18:37.383Z,64.20
2019-04-06T11:21:21.759Z,63.40
2019-04-06T11:24:22.739Z,62.10
2019-04-06T11:27:02.329Z,61.60
2019-04-06T11:29:44.320Z,61.80
2019-04-06T11:32:41.684Z,62.40
2019-04-06T11:35:33.718Z,63.10
2019-04-06T11:38:24.998Z,62.60
2019-04-06T11:41:16.517Z,61.90
2019-04-06T11:44:10.679Z,60.20
2019-04-06T11:47:08.239Z,59.20
2019-04-06T11:49:57.720Z,58.20
2019-04-06T11:52:53.155Z,58.80
2019-04-06T11:55:44.836Z,57.90
2019-04-06T11:58:45.879Z,57.50
2019-04-06T12:01:39.939Z,56.60
2019-04-06T12:04:28.158Z,56.20
2019-04-06T12:07:34.500Z,56.60
2019-04-06T12:10:20.660Z,56.80
2019-04-06T12:13:18.319Z,56.80
2019-04-06T12:16:08.301Z,56.60
2019-04-06T12:19:11.938Z,56.60
2019-04-06T12:22:12.319Z,56.00
2019-04-06T12:24:58.084Z,56.10
2019-04-06T12:27:55.878Z,55.20
2019-04-06T12:30:49.234Z,55.60
2019-04-06T12:33:49.173Z,55.00
2019-04-06T12:36:30.199Z,54.80
2019-04-06T12:39:20.327Z,55.30
2019-04-06T12:42:15.117Z,54.90
2019-04-06T12:45:05.279Z,55.00
2019-04-06T12:47:47.319Z,55.50
2019-04-06T12:50:28.599Z,55.80
2019-04-06T12:53:22.767Z,55.50
2019-04-06T12:56:06.769Z,55.50
2019-04-06T12:59:07.799Z,55.30
2019-04-06T13:02:01.439Z,55.10
2019-04-06T13:04:50.579Z,55.50
2019-04-06T13:07:57.219Z,55.30
2019-04-06T13:10:46.921Z,55.00
2019-04-06T13:13:41.519Z,54.80
2019-04-06T13:16:27.159Z,54.90
2019-04-06T13:19:10.046Z,55.20
2019-04-06T13:22:07.378Z,54.20
2019-04-06T13:25:05.842Z,53.90
2019-04-06T13:27:55.539Z,53.70
2019-04-06T13:31:01.427Z,53.20
2019-04-06T13:33:32.965Z,52.50
2019-04-06T13:36:30.599Z,51.70
2019-04-06T13:39:20.599Z,52.10
2019-04-06T13:42:12.120Z,52.00
2019-04-06T13:45:02.179Z,52.00
2019-04-06T13:47:59.311Z,51.80
2019-04-06T13:50:47.262Z,51.60
2019-04-06T13:53:38.847Z,51.70
2019-04-06T13:56:21.925Z,52.60
2019-04-06T13:59:02.840Z,51.30
2019-04-06T14:01:54.842Z,51.30
2019-04-06T14:04:44.599Z,51.10
2019-04-06T14:07:37.139Z,51.10
2019-04-06T14:10:31.059Z,50.30
2019-04-06T14:13:37.727Z,50.50
2019-04-06T14:16:40.884Z,50.70
2019-04-06T14:19:32.964Z,50.20
2019-04-06T14:22:27.219Z,49.40
2019-04-06T14:25:13.639Z,50.10
2019-04-06T14:28:04.654Z,50.00
2019-04-06T14:31:00.866Z,50.70
2019-04-06T14:33:51.039Z,50.30
2019-04-06T14:36:40.740Z,51.00
2019-04-06T14:39:22.279Z,51.30
2019-04-06T14:42:16.119Z,52.20
2019-04-06T14:45:06.664Z,52.10
2019-04-06T14:47:55.320Z,51.20
2019-04-06T14:50:45.060Z,50.90
2019-04-06T14:53:39.437Z,50.60
2019-04-06T14:56:45.739Z,50.00
2019-04-06T14:59:49.544Z,49.80
2019-04-06T15:02:39.153Z,49.70
2019-04-06T15:05:31.044Z,50.20
2019-04-06T15:08:32.309Z,50.10
2019-04-06T15:11:29.225Z,52.00
2019-04-06T15:14:29.699Z,52.30
2019-04-06T15:17:19.160Z,53.10
2019-04-06T15:20:16.839Z,52.70
2019-04-06T15:23:00.161Z,52.70
2019-04-06T15:25:53.739Z,51.90
2019-04-06T15:28:38.542Z,52.00
2019-04-06T15:31:22.462Z,50.80
2019-04-06T15:34:31.879Z,50.60
2019-04-06T15:37:13.179Z,50.10
2019-04-06T15:40:02.983Z,50.20
2019-04-06T15:42:54.991Z,49.90
2019-04-06T15:45:49.779Z,49.50
2019-04-06T15:48:40.109Z,49.90
2019-04-06T15:51:29.483Z,49.60
2019-04-06T15:54:19.830Z,49.80
2019-04-06T15:57:09.729Z,49.80
2019-04-06T15:59:59.178Z,49.80
2019-04-06T16:02:50.457Z,49.80
2019-04-06T16:05:42.418Z,49.80
2019-04-06T16:08:33.705Z,50.00
2019-04-06T16:11:24.287Z,50.30
2019-04-06T16:14:14.759Z,50.80
2019-04-06T16:17:05.797Z,51.00
2019-04-06T16:20:00.628Z,51.10
2019-04-06T16:23:02.378Z,51.40
2019-04-06T16:25:52.628Z,51.70
2019-04-06T16:28:50.277Z,52.00
2019-04-06T16:31:39.740Z,51.50
2019-04-06T16:34:30.034Z,51.60
2019-04-06T16:37:26.917Z,51.40
2019-04-06T16:40:30.697Z,51.60
2019-04-06T16:43:20.697Z,51.90
2019-04-06T16:46:11.869Z,52.10
2019-04-06T16:48:56.929Z,52.10
2019-04-06T16:51:47.578Z,52.50
2019-04-06T16:54:32.457Z,52.60
2019-04-06T16:57:22.699Z,52.90
2019-04-06T17:00:18.781Z,53.10
2019-04-06T17:03:09.045Z,53.10
2019-04-06T17:06:09.800Z,52.90
2019-04-06T17:09:01.188Z,53.00
2019-04-06T17:12:11.021Z,53.30
2019-04-06T17:15:05.303Z,53.50
2019-04-06T17:17:55.325Z,54.10
2019-04-06T17:20:47.052Z,54.90
2019-04-06T17:23:31.318Z,55.30
2019-04-06T17:26:28.823Z,56.40
2019-04-06T17:29:12.461Z,57.40
2019-04-06T17:32:15.998Z,58.20
2019-04-06T17:35:12.999Z,58.60
2019-04-06T17:37:55.718Z,59.20
2019-04-06T17:40:45.101Z,59.70
2019-04-06T17:43:40.350Z,60.00
2019-04-06T17:46:32.140Z,60.40
2019-04-06T17:49:24.181Z,60.80
2019-04-06T17:52:11.798Z,61.10
2019-04-06T17:55:01.164Z,61.30
2019-04-06T17:57:49.093Z,61.10
2019-04-06T18:00:39.475Z,61.20
2019-04-06T18:03:29.978Z,61.50
2019-04-06T18:06:26.080Z,61.60
2019-04-06T18:09:31.758Z,61.80
2019-04-06T18:12:19.621Z,61.90
2019-04-06T18:14:53.019Z,62.10
2019-04-06T18:17:26.610Z,62.40
2019-04-06T18:20:00.521Z,62.80
2019-04-06T18:22:34.277Z,62.60
2019-04-06T18:25:07.979Z,62.80
2019-04-06T18:27:41.797Z,62.60
2019-04-06T18:30:15.656Z,62.50
2019-04-06T18:33:09.700Z,62.40
2019-04-06T18:35:42.018Z,62.60
2019-04-06T18:38:29.873Z,62.80
2019-04-06T18:41:02.402Z,62.90
2019-04-06T18:43:35.618Z,63.40
2019-04-06T18:46:08.298Z,63.40
2019-04-06T18:48:42.048Z,63.40
2019-04-06T18:51:15.748Z,63.40
2019-04-06T18:53:49.071Z,63.70
2019-04-06T18:56:22.657Z,64.10
2019-04-06T18:58:55.937Z,64.30
2019-04-06T19:01:29.535Z,64.20
2019-04-06T19:04:02.171Z,64.30
2019-04-06T19:06:34.831Z,64.40
2019-04-06T19:09:20.659Z,64.50
2019-04-06T19:11:53.711Z,64.20
2019-04-06T19:14:18.159Z,64.30
2019-04-06T19:16:50.623Z,64.50
2019-04-06T19:19:23.168Z,64.70
2019-04-06T19:21:56.097Z,65.10
2019-04-06T19:24:30.298Z,65.50
2019-04-06T19:27:03.603Z,65.70
2019-04-06T19:29:36.316Z,65.80
2019-04-06T19:32:09.116Z,66.20
2019-04-06T19:34:42.137Z,66.50
2019-04-06T19:37:15.239Z,66.50
2019-04-06T19:39:48.218Z,66.70
2019-04-06T19:42:21.524Z,66.80
2019-04-06T19:44:55.419Z,67.00
2019-04-06T19:47:29.018Z,67.20
2019-04-06T19:50:02.068Z,67.60
2019-04-06T19:52:34.785Z,67.70
2019-04-06T19:55:07.887Z,67.40
2019-04-06T19:57:40.962Z,67.30
2019-04-06T20:00:14.757Z,67.20
2019-04-06T20:02:47.597Z,67.80
2019-04-06T20:05:20.871Z,67.80
2019-04-06T20:07:52.937Z,67.80
2019-04-06T20:10:26.300Z,68.20
2019-04-06T20:12:58.380Z,68.60
2019-04-06T20:15:31.697Z,68.80
2019-04-06T20:18:03.977Z,69.20
2019-04-06T20:20:36.996Z,69.00
2019-04-06T20:23:11.092Z,69.20
2019-04-06T20:25:43.960Z,69.20
2019-04-06T20:28:17.677Z,69.40
2019-04-06T20:30:51.257Z,69.60
2019-04-06T20:33:23.438Z,69.90
2019-04-06T20:35:57.035Z,70.30
2019-04-06T20:38:29.961Z,70.40
2019-04-06T20:41:03.260Z,70.40
2019-04-06T20:43:36.937Z,70.40
2019-04-06T20:46:10.817Z,70.70
2019-04-06T20:48:44.699Z,70.80
2019-04-06T20:51:18.014Z,70.80
2019-04-06T20:53:51.137Z,71.00
2019-04-06T20:56:25.107Z,71.00
2019-04-06T20:58:58.690Z,71.00
2019-04-06T21:01:32.372Z,71.20
2019-04-06T21:04:05.366Z,71.20
2019-04-06T21:06:39.143Z,71.20
2019-04-06T21:09:15.459Z,71.10
2019-04-06T21:11:48.278Z,71.30
2019-04-06T21:14:21.777Z,71.50
2019-04-06T21:16:54.717Z,71.50
2019-04-06T21:19:28.061Z,71.60
2019-04-06T21:22:02.557Z,71.70
2019-04-06T21:24:36.410Z,71.60
2019-04-06T21:27:08.937Z,71.50
2019-04-06T21:29:41.482Z,72.00
2019-04-06T21:32:14.990Z,72.10
2019-04-06T21:34:48.410Z,73.30
2019-04-06T21:37:21.135Z,72.80
2019-04-06T21:39:55.022Z,72.80
2019-04-06T21:42:28.638Z,72.60
2019-04-06T21:45:01.891Z,72.90
2019-04-06T21:47:35.290Z,73.70
2019-04-06T21:50:08.700Z,73.10
2019-04-06T21:52:41.837Z,73.20
2019-04-06T21:55:16.165Z,73.50
2019-04-06T21:57:48.917Z,73.70
2019-04-06T22:00:39.057Z,74.30
2019-04-06T22:03:11.358Z,74.30
2019-04-06T22:05:44.478Z,74.40
2019-04-06T22:08:18.688Z,74.30
2019-04-06T22:10:51.597Z,74.30
2019-04-06T22:13:24.963Z,74.40
2019-04-06T22:15:58.188Z,74.60
2019-04-06T22:18:31.189Z,74.60
2019-04-06T22:21:04.692Z,74.80
2019-04-06T22:23:42.314Z,74.90
2019-04-06T22:26:12.797Z,75.10
2019-04-06T22:28:46.842Z,75.20
2019-04-06T22:31:20.073Z,75.40
2019-04-06T22:33:54.088Z,75.30
2019-04-06T22:36:27.743Z,75.40
2019-04-06T22:39:01.019Z,75.50
2019-04-06T22:41:32.837Z,75.50
2019-04-06T22:44:06.120Z,75.40
2019-04-06T22:46:38.536Z,75.60
2019-04-06T22:49:12.416Z,75.50
2019-04-06T22:51:46.990Z,75.50
2019-04-06T22:54:19.649Z,75.70
2019-04-06T22:56:53.647Z,75.60
2019-04-06T22:59:27.581Z,75.50
2019-04-06T23:02:00.916Z,75.60
2019-04-06T23:04:47.666Z,75.80
2019-04-06T23:07:17.977Z,76.90
2019-04-06T23:09:50.657Z,77.80
2019-04-06T23:12:23.677Z,77.70
2019-04-06T23:14:57.537Z,76.10
2019-04-06T23:17:31.816Z,75.60
2019-04-06T23:20:05.553Z,75.70
2019-04-06T23:22:38.782Z,75.70
2019-04-06T23:25:11.831Z,76.10
2019-04-06T23:27:45.730Z,76.70
2019-04-06T23:30:19.502Z,77.00
2019-04-06T23:32:52.538Z,77.00
2019-04-06T23:35:25.185Z,76.40
2019-04-06T23:37:58.036Z,76.10
2019-04-06T23:40:31.169Z,76.50
2019-04-06T23:43:04.259Z,76.80
2019-04-06T23:45:37.822Z,76.80
2019-04-06T23:48:10.840Z,76.60
2019-04-06T23:50:43.885Z,76.50
2019-04-06T23:53:18.037Z,76.10
2019-04-06T23:55:51.759Z,76.10
2019-04-06T23:58:24.505Z,76.10
